Time;durP1;ratioP1;P1;durP2;ratioP2;P2;SDS_P1;SDS_P2;PMS_P1;PMS_P2;Temp;Humidity;BMP_temperature;BMP_pressure;BME280_temperature;BME280_humidity;BME280_pressure;Samples;Min_cycle;Max_cycle;Signal;HPM_P1;HPM_P2
2022/12/25 00:00:22;;;;;;;;;;;;;;;;;;6221443;23;19979;-78
2022/12/25 00:02:48;;;;;;;;;;;;;;;;;;6196033;23;20301;-77
2022/12/25 00:05:14;;;;;;;;;;;;;;;;;;6221953;23;19916;-77
2022/12/25 00:07:39;;;;;;;;;;;;;;;;;;6195047;23;19936;-78
2022/12/25 00:10:05;;;;;;;;;;;;;;;;;;6218227;23;19927;-77
2022/12/25 00:12:31;;;;;;;;;;;;;;;;;;6217357;23;19912;-77
2022/12/25 00:14:56;;;;;;;;;;;;;;;;;;6216828;23;19973;-77
2022/12/25 00:17:22;;;;;;;;;;;;;;;;;;6219561;23;19958;-77
2022/12/25 00:19:48;;;;;;;;;;;;;;;;;;6220107;23;19935;-77
2022/12/25 00:22:13;;;;;;;;;;;;;;;;;;6222856;23;19931;-77
2022/12/25 00:24:39;;;;;;;;;;;;;;;;;;6224192;23;19912;-75
2022/12/25 00:27:05;;;;;;;;;;;;;;;;;;6226766;23;19919;-77
2022/12/25 00:29:31;;;;;;;;;;;;;;;;;;6231470;23;19916;-77
2022/12/25 00:31:56;;;;;;;;;;;;;;;;;;6234384;23;19904;-77
2022/12/25 00:34:22;;;;;;;;;;;;;;;;;;6235115;23;19987;-76
2022/12/25 00:36:48;;;;;;;;;;;;;;;;;;6235664;23;19958;-77
2022/12/25 00:39:13;;;;;;;;;;;;;;;;;;6209392;23;19942;-78
2022/12/25 00:44:23;;;;;;;;;;;;;;;;;;6199006;23;19916;-79
2022/12/25 00:46:49;;;;;;;;;;;;;;;;;;6194285;23;19991;-79
2022/12/25 00:49:15;;;;;;;;;;;;;;;;;;6220472;23;20403;-78
2022/12/25 00:51:41;;;;;;;;;;;;;;;;;;6196154;23;20305;-79
2022/12/25 00:54:06;;;;;;;;;;;;;;;;;;6222812;23;20640;-79
2022/12/25 00:56:32;;;;;;;;;;;;;;;;;;6223509;23;19916;-79
2022/12/25 00:58:57;;;;;;;;;;;;;;;;;;6223263;23;19942;-79
2022/12/25 01:01:23;;;;;;;;;;;;;;;;;;6196788;23;19916;-79
2022/12/25 01:03:49;;;;;;;;;;;;;;;;;;6226334;23;19911;-79
2022/12/25 01:06:14;;;;;;;;;;;;;;;;;;6223720;23;19912;-78
2022/12/25 01:10:21;;;;;;;;;;;;;;;;;;6195451;23;19912;-78
2022/12/25 01:11:25;;;;;;;;;;;;;;;;;;6223264;23;19950;-79
2022/12/25 01:13:51;;;;;;;;;;;;;;;;;;6219743;23;19912;-78
2022/12/25 01:16:17;;;;;;;;;;;;;;;;;;6221590;23;19923;-78
2022/12/25 01:18:43;;;;;;;;;;;;;;;;;;6217633;23;19911;-78
2022/12/25 01:21:08;;;;;;;;;;;;;;;;;;6220326;23;19912;-78
2022/12/25 01:23:34;;;;;;;;;;;;;;;;;;6224043;23;19919;-79
2022/12/25 01:25:59;;;;;;;;;;;;;;;;;;6223315;23;19915;-79
2022/12/25 01:28:25;;;;;;;;;;;;;;;;;;6193889;23;19912;-78
2022/12/25 01:30:51;;;;;;;;;;;;;;;;;;6221419;23;19912;-78
2022/12/25 01:33:17;;;;;;;;;;;;;;;;;;6215700;23;19919;-79
2022/12/25 01:35:43;;;;;;;;;;;;;;;;;;6222089;23;19919;-79
2022/12/25 01:38:08;;;;;;;;;;;;;;;;;;6222198;23;19912;-79
2022/12/25 01:40:34;;;;;;;;;;;;;;;;;;6221139;23;19923;-77
2022/12/25 01:42:59;;;;;;;;;;;;;;;;;;6218572;23;20337;-77
2022/12/25 01:45:25;;;;;;;;;;;;;;;;;;6190630;23;19912;-78
2022/12/25 01:47:51;;;;;;;;;;;;;;;;;;6218464;23;19912;-78
2022/12/25 01:50:17;;;;;;;;;;;;;;;;;;6220350;23;19912;-78
2022/12/25 01:52:42;;;;;;;;;;;;;;;;;;6218907;23;19919;-77
2022/12/25 01:55:10;;;;;;;;;;;;;;;;;;6192782;23;19919;-77
2022/12/25 01:57:36;;;;;;;;;;;;;;;;;;6219144;23;19912;-81
2022/12/25 02:00:01;;;;;;;;;;;;;;;;;;6218608;23;19912;-78
2022/12/25 02:02:30;;;;;;;;;;;;;;;;;;6213520;23;19970;-77
2022/12/25 02:04:55;;;;;;;;;;;;;;;;;;6186525;23;19912;-76
2022/12/25 02:07:21;;;;;;;;;;;;;;;;;;6185039;23;19919;-77
2022/12/25 02:09:47;;;;;;;;;;;;;;;;;;6210512;23;19920;-79
2022/12/25 02:12:12;;;;;;;;;;;;;;;;;;6184691;23;19932;-77
2022/12/25 02:14:38;;;;;;;;;;;;;;;;;;6210151;23;20014;-78
2022/12/25 02:17:04;;;;;;;;;;;;;;;;;;6183782;23;19973;-78
2022/12/25 02:19:31;;;;;;;;;;;;;;;;;;6210733;23;20305;-78
2022/12/25 02:21:56;;;;;;;;;;;;;;;;;;6184198;23;20014;-79
2022/12/25 02:24:22;;;;;;;;;;;;;;;;;;6185331;23;19967;-80
2022/12/25 02:26:48;;;;;;;;;;;;;;;;;;6212116;23;20333;-80
2022/12/25 02:29:14;;;;;;;;;;;;;;;;;;6184860;23;19948;-80
2022/12/25 02:31:40;;;;;;;;;;;;;;;;;;6211603;23;19912;-79
2022/12/25 02:34:06;;;;;;;;;;;;;;;;;;6211089;23;19974;-79
2022/12/25 02:36:31;;;;;;;;;;;;;;;;;;6210427;23;19997;-79
2022/12/25 02:41:41;;;;;;;;;;;;;;;;;;6210146;23;19966;-78
2022/12/25 03:11:29;;;;;;;;;;;;;;;;;;6186768;23;20333;-78
2022/12/25 03:11:42;;;;;;;;;;;;;;;;;;6187186;23;19911;-80
2022/12/25 03:16:55;;;;;;;;;;;;;;;;;;6213464;23;19912;-80
2022/12/25 03:27:34;;;;;;;;;;;;;;;;;;6212100;23;20002;-79
2022/12/25 03:32:43;;;;;;;;;;;;;;;;;;6185979;23;19912;-81
2022/12/25 03:35:21;;;;;;;;;;;;;;;;;;6187347;23;19918;-80
2022/12/25 04:38:27;;;;;;;;;;;;;;;;;;6211010;23;20246;-78
2022/12/25 04:40:53;;;;;;;;;;;;;;;;;;6211341;23;19943;-78
2022/12/25 04:43:19;;;;;;;;;;;;;;;;;;6185100;23;19920;-77
2022/12/25 04:45:44;;;;;;;;;;;;;;;;;;6210831;23;19974;-77
2022/12/25 04:48:10;;;;;;;;;;;;;;;;;;6211284;23;19911;-79
2022/12/25 04:50:36;;;;;;;;;;;;;;;;;;6211625;23;19919;-79
2022/12/25 04:53:01;;;;;;;;;;;;;;;;;;6211694;23;19918;-79
2022/12/25 04:55:27;;;;;;;;;;;;;;;;;;6185664;23;19912;-80
2022/12/25 04:57:52;;;;;;;;;;;;;;;;;;6212360;23;19915;-77
2022/12/25 05:00:18;;;;;;;;;;;;;;;;;;6182626;23;19976;-75
2022/12/25 05:02:44;;;;;;;;;;;;;;;;;;6209724;23;20395;-76
2022/12/25 05:05:09;;;;;;;;;;;;;;;;;;6209394;23;19966;-76
2022/12/25 05:07:35;;;;;;;;;;;;;;;;;;6210177;23;19911;-75
2022/12/25 05:10:01;;;;;;;;;;;;;;;;;;6210567;23;19911;-76
2022/12/25 05:12:26;;;;;;;;;;;;;;;;;;6182279;23;19912;-76
2022/12/25 05:14:52;;;;;;;;;;;;;;;;;;6210324;23;19912;-76
2022/12/25 05:17:18;;;;;;;;;;;;;;;;;;6158792;23;19999;-75
2022/12/25 05:19:43;;;;;;;;;;;;;;;;;;6209579;23;19966;-75
2022/12/25 05:22:09;;;;;;;;;;;;;;;;;;6210165;23;19920;-76
2022/12/25 05:24:35;;;;;;;;;;;;;;;;;;6210745;23;19912;-75
2022/12/25 05:27:00;;;;;;;;;;;;;;;;;;6183605;23;19969;-76
2022/12/25 05:29:26;;;;;;;;;;;;;;;;;;6182335;23;19919;-76
2022/12/25 05:31:51;;;;;;;;;;;;;;;;;;6208337;23;19991;-75
2022/12/25 05:34:20;;;;;;;;;;;;;;;;;;6157294;23;19915;-75
2022/12/25 05:36:46;;;;;;;;;;;;;;;;;;6181428;23;19912;-75
2022/12/25 05:39:11;;;;;;;;;;;;;;;;;;6208070;23;19994;-76
2022/12/25 05:41:37;;;;;;;;;;;;;;;;;;6210386;23;19948;-76
2022/12/25 05:44:02;;;;;;;;;;;;;;;;;;6210662;23;19912;-75
2022/12/25 05:46:28;;;;;;;;;;;;;;;;;;6211930;23;19920;-77
2022/12/25 05:48:54;;;;;;;;;;;;;;;;;;6161704;23;20352;-76
2022/12/25 05:51:20;;;;;;;;;;;;;;;;;;6165588;23;19911;-77
2022/12/25 05:53:45;;;;;;;;;;;;;;;;;;6210407;23;19912;-78
2022/12/25 05:56:11;;;;;;;;;;;;;;;;;;6187347;23;19971;-80
2022/12/25 05:58:37;;;;;;;;;;;;;;;;;;6185450;23;19962;-81
2022/12/25 06:01:02;;;;;;;;;;;;;;;;;;6194139;23;19986;-80
2022/12/25 06:03:28;;;;;;;;;;;;;;;;;;6162472;23;19926;-80
2022/12/25 06:05:54;;;;;;;;;;;;;;;;;;6215953;23;19915;-80
2022/12/25 06:08:19;;;;;;;;;;;;;;;;;;6184540;23;19912;-79
2022/12/25 06:10:45;;;;;;;;;;;;;;;;;;6185601;23;19919;-80
2022/12/25 06:13:11;;;;;;;;;;;;;;;;;;6214597;23;19998;-81
2022/12/25 06:15:37;;;;;;;;;;;;;;;;;;6189958;23;19911;-79
2022/12/25 06:18:02;;;;;;;;;;;;;;;;;;6190857;23;19956;-81
2022/12/25 06:20:28;;;;;;;;;;;;;;;;;;6217734;23;19912;-81
2022/12/25 06:22:54;;;;;;;;;;;;;;;;;;6190019;23;19924;-79
2022/12/25 06:25:19;;;;;;;;;;;;;;;;;;6215710;23;19918;-81
2022/12/25 06:27:45;;;;;;;;;;;;;;;;;;6216251;23;19915;-81
2022/12/25 06:30:10;;;;;;;;;;;;;;;;;;6218266;23;19974;-81
2022/12/25 06:32:36;;;;;;;;;;;;;;;;;;6193658;23;19911;-79
2022/12/25 06:35:05;;;;;;;;;;;;;;;;;;6218752;23;19919;-81
2022/12/25 06:37:31;;;;;;;;;;;;;;;;;;6218175;23;19994;-82
2022/12/25 06:39:56;;;;;;;;;;;;;;;;;;6220768;23;19919;-80
2022/12/25 06:42:22;;;;;;;;;;;;;;;;;;6212688;23;20363;-78
2022/12/25 06:44:48;;;;;;;;;;;;;;;;;;6186575;23;20308;-80
2022/12/25 06:47:14;;;;;;;;;;;;;;;;;;6212055;23;19930;-79
2022/12/25 06:49:39;;;;;;;;;;;;;;;;;;6211476;23;20377;-80
2022/12/25 06:52:05;;;;;;;;;;;;;;;;;;6185702;23;19912;-79
2022/12/25 06:54:31;;;;;;;;;;;;;;;;;;6211464;23;19946;-80
2022/12/25 06:56:58;;;;;;;;;;;;;;;;;;6184472;23;19912;-78
2022/12/25 06:59:24;;;;;;;;;;;;;;;;;;6211145;23;19916;-79
2022/12/25 07:01:49;;;;;;;;;;;;;;;;;;6185249;23;19962;-80
2022/12/25 07:04:15;;;;;;;;;;;;;;;;;;6211604;23;19995;-79
2022/12/25 07:06:41;;;;;;;;;;;;;;;;;;6210978;23;19913;-78
2022/12/25 07:09:06;;;;;;;;;;;;;;;;;;6185023;23;19912;-79
2022/12/25 07:11:32;;;;;;;;;;;;;;;;;;6211971;23;20337;-78
2022/12/25 07:13:58;;;;;;;;;;;;;;;;;;6212339;23;19912;-79
2022/12/25 07:16:23;;;;;;;;;;;;;;;;;;6185377;23;19916;-78
2022/12/25 07:18:49;;;;;;;;;;;;;;;;;;6211492;23;19967;-80
2022/12/25 07:21:15;;;;;;;;;;;;;;;;;;6211379;23;19912;-78
2022/12/25 07:23:40;;;;;;;;;;;;;;;;;;6159688;23;19920;-79
2022/12/25 07:26:06;;;;;;;;;;;;;;;;;;6210730;23;20329;-79
2022/12/25 07:28:32;;;;;;;;;;;;;;;;;;6211268;23;19916;-79
2022/12/25 07:30:57;;;;;;;;;;;;;;;;;;6210978;23;19912;-78
2022/12/25 07:33:23;;;;;;;;;;;;;;;;;;6210994;23;20512;-79
2022/12/25 07:35:49;;;;;;;;;;;;;;;;;;6184283;23;19912;-79
2022/12/25 07:38:15;;;;;;;;;;;;;;;;;;6210759;23;19930;-79
2022/12/25 07:40:40;;;;;;;;;;;;;;;;;;6211016;23;19956;-80
2022/12/25 07:43:06;;;;;;;;;;;;;;;;;;6186077;23;19955;-78
2022/12/25 07:45:32;;;;;;;;;;;;;;;;;;6160223;23;19923;-78
2022/12/25 07:47:58;;;;;;;;;;;;;;;;;;6213000;23;19912;-78
2022/12/25 07:50:23;;;;;;;;;;;;;;;;;;6212598;23;19931;-79
2022/12/25 07:52:49;;;;;;;;;;;;;;;;;;6212900;23;19912;-79
2022/12/25 07:55:15;;;;;;;;;;;;;;;;;;6186921;23;19919;-80
2022/12/25 07:57:40;;;;;;;;;;;;;;;;;;6186665;23;19912;-79
2022/12/25 08:00:06;;;;;;;;;;;;;;;;;;6212602;23;20394;-80
2022/12/25 08:02:37;;;;;;;;;;;;;;;;;;6213071;23;19920;-79
2022/12/25 08:05:03;;;;;;;;;;;;;;;;;;6212492;23;19919;-79
2022/12/25 08:07:28;;;;;;;;;;;;;;;;;;6185947;23;19919;-80
2022/12/25 08:09:54;;;;;;;;;;;;;;;;;;6225366;23;19916;-78
2022/12/25 08:12:20;;;;;;;;;;;;;;;;;;6225914;23;19919;-80
2022/12/25 08:14:45;;;;;;;;;;;;;;;;;;6224140;23;19912;-80
2022/12/25 08:17:11;;;;;;;;;;;;;;;;;;6222833;23;19920;-80
2022/12/25 08:19:37;;;;;;;;;;;;;;;;;;6221538;23;19912;-79
2022/12/25 08:22:03;;;;;;;;;;;;;;;;;;6188771;23;19968;-80
2022/12/25 08:24:28;;;;;;;;;;;;;;;;;;6213937;23;19931;-80
2022/12/25 08:26:54;;;;;;;;;;;;;;;;;;6187975;23;19982;-79
2022/12/25 08:29:19;;;;;;;;;;;;;;;;;;6214848;23;19912;-79
2022/12/25 08:31:45;;;;;;;;;;;;;;;;;;6215286;23;19911;-79
2022/12/25 08:34:11;;;;;;;;;;;;;;;;;;6216008;23;19966;-80
2022/12/25 08:36:36;;;;;;;;;;;;;;;;;;6215633;23;19912;-78
2022/12/25 08:39:02;;;;;;;;;;;;;;;;;;6214231;23;19912;-80
2022/12/25 08:41:28;;;;;;;;;;;;;;;;;;6214212;23;20388;-79
2022/12/25 08:43:54;;;;;;;;;;;;;;;;;;6213437;23;19959;-78
2022/12/25 08:46:19;;;;;;;;;;;;;;;;;;6213587;23;19920;-80
2022/12/25 08:48:45;;;;;;;;;;;;;;;;;;6213497;23;19912;-80
2022/12/25 08:51:13;;;;;;;;;;;;;;;;;;6186732;23;20373;-79
2022/12/25 08:53:39;;;;;;;;;;;;;;;;;;6185350;23;19919;-79
2022/12/25 08:56:04;;;;;;;;;;;;;;;;;;6185961;23;19908;-79
2022/12/25 08:58:30;;;;;;;;;;;;;;;;;;6160821;23;19911;-79
2022/12/25 09:00:56;;;;;;;;;;;;;;;;;;6211593;23;19994;-79
2022/12/25 09:03:21;;;;;;;;;;;;;;;;;;6210840;23;20253;-79
2022/12/25 09:05:47;;;;;;;;;;;;;;;;;;6211089;23;20537;-79
2022/12/25 09:08:13;;;;;;;;;;;;;;;;;;6209761;23;19915;-78
2022/12/25 09:10:38;;;;;;;;;;;;;;;;;;6211028;23;19919;-79
2022/12/25 09:13:04;;;;;;;;;;;;;;;;;;6210948;23;19997;-78
2022/12/25 09:15:29;;;;;;;;;;;;;;;;;;6184916;23;19912;-79
2022/12/25 09:17:55;;;;;;;;;;;;;;;;;;6184373;23;19922;-79
2022/12/25 09:20:21;;;;;;;;;;;;;;;;;;6183931;23;20700;-79
2022/12/25 09:22:46;;;;;;;;;;;;;;;;;;6209178;23;19920;-78
2022/12/25 09:25:12;;;;;;;;;;;;;;;;;;6185246;23;19916;-79
2022/12/25 09:27:38;;;;;;;;;;;;;;;;;;6211742;23;19911;-79
2022/12/25 09:30:04;;;;;;;;;;;;;;;;;;6213038;23;19916;-78
2022/12/25 09:32:29;;;;;;;;;;;;;;;;;;6186016;23;19912;-79
2022/12/25 09:34:55;;;;;;;;;;;;;;;;;;6211644;23;20398;-77
2022/12/25 09:37:21;;;;;;;;;;;;;;;;;;6188213;23;19912;-77
2022/12/25 09:39:47;;;;;;;;;;;;;;;;;;6212309;23;19912;-77
2022/12/25 09:42:13;;;;;;;;;;;;;;;;;;6161513;23;19926;-79
2022/12/25 09:44:38;;;;;;;;;;;;;;;;;;6215862;23;20009;-79
2022/12/25 09:47:04;;;;;;;;;;;;;;;;;;6185654;23;19998;-79
2022/12/25 09:49:30;;;;;;;;;;;;;;;;;;6184369;23;19999;-81
2022/12/25 09:51:56;;;;;;;;;;;;;;;;;;6213577;23;19951;-81
2022/12/25 09:54:22;;;;;;;;;;;;;;;;;;6213113;23;19937;-81
2022/12/25 09:56:48;;;;;;;;;;;;;;;;;;6212923;23;19912;-80
2022/12/25 09:59:13;;;;;;;;;;;;;;;;;;6213444;23;19943;-80
2022/12/25 10:01:39;;;;;;;;;;;;;;;;;;6213294;23;19915;-81
2022/12/25 10:04:05;;;;;;;;;;;;;;;;;;6187409;23;20003;-81
2022/12/25 10:06:30;;;;;;;;;;;;;;;;;;6187207;23;19966;-81
2022/12/25 10:08:56;;;;;;;;;;;;;;;;;;6213503;23;19944;-80
2022/12/25 10:11:23;;;;;;;;;;;;;;;;;;6212776;23;19911;-80
2022/12/25 10:13:48;;;;;;;;;;;;;;;;;;6216086;23;20557;-82
2022/12/25 10:16:14;;;;;;;;;;;;;;;;;;6216946;23;19920;-81
2022/12/25 10:18:40;;;;;;;;;;;;;;;;;;6218709;23;19935;-82
2022/12/25 10:21:06;;;;;;;;;;;;;;;;;;6221543;23;19912;-81
2022/12/25 10:23:31;;;;;;;;;;;;;;;;;;6192869;23;19943;-84
2022/12/25 10:25:57;;;;;;;;;;;;;;;;;;6222992;23;19916;-82
2022/12/25 10:28:23;;;;;;;;;;;;;;;;;;6196747;23;19954;-83
2022/12/25 10:30:49;;;;;;;;;;;;;;;;;;6201646;23;19916;-83
2022/12/25 10:33:15;;;;;;;;;;;;;;;;;;6197802;23;19927;-82
2022/12/25 10:35:40;;;;;;;;;;;;;;;;;;6222671;23;19912;-81
2022/12/25 10:38:06;;;;;;;;;;;;;;;;;;6222580;23;19987;-82
2022/12/25 10:40:32;;;;;;;;;;;;;;;;;;6194626;23;19963;-82
2022/12/25 10:42:57;;;;;;;;;;;;;;;;;;6221729;23;19927;-81
2022/12/25 10:45:23;;;;;;;;;;;;;;;;;;6217120;23;19918;-82
2022/12/25 10:47:49;;;;;;;;;;;;;;;;;;6217994;23;19990;-81
2022/12/25 10:50:15;;;;;;;;;;;;;;;;;;6191600;23;19915;-82
2022/12/25 10:52:40;;;;;;;;;;;;;;;;;;6200640;22;19916;-84
2022/12/25 10:55:06;;;;;;;;;;;;;;;;;;6212803;23;20660;-86
2022/12/25 10:57:31;;;;;;;;;;;;;;;;;;6187176;22;19976;-87
2022/12/25 10:59:57;;;;;;;;;;;;;;;;;;6145092;23;19917;-82
2022/12/25 11:08:02;;;;;;;;;;;;;;;;;;6147993;23;19959;-84
2022/12/25 11:16:11;;;;;;;;;;;;;;;;;;6179555;22;19951;-84
2022/12/25 11:18:37;;;;;;;;;;;;;;;;;;6166650;22;19916;-83
2022/12/25 11:21:03;;;;;;;;;;;;;;;;;;6189576;22;20414;-86
2022/12/25 11:23:29;;;;;;;;;;;;;;;;;;6215588;22;19924;-82
2022/12/25 11:25:55;;;;;;;;;;;;;;;;;;6196653;23;19912;-80
2022/12/25 11:28:21;;;;;;;;;;;;;;;;;;6215932;23;20407;-80
2022/12/25 11:30:46;;;;;;;;;;;;;;;;;;6194697;23;19919;-82
2022/12/25 11:33:12;;;;;;;;;;;;;;;;;;6196987;23;19918;-81
2022/12/25 11:35:39;;;;;;;;;;;;;;;;;;6222993;23;19916;-81
2022/12/25 11:38:05;;;;;;;;;;;;;;;;;;6221097;23;20058;-81
2022/12/25 11:40:31;;;;;;;;;;;;;;;;;;6196581;23;19912;-82
2022/12/25 11:42:56;;;;;;;;;;;;;;;;;;6202842;23;19920;-84
2022/12/25 11:45:22;;;;;;;;;;;;;;;;;;6237079;23;19974;-84
2022/12/25 11:47:47;;;;;;;;;;;;;;;;;;6225157;23;19912;-84
2022/12/25 11:50:13;;;;;;;;;;;;;;;;;;6225920;22;20478;-81
2022/12/25 11:52:39;;;;;;;;;;;;;;;;;;6223949;23;19934;-81
2022/12/25 11:55:04;;;;;;;;;;;;;;;;;;6224838;23;19965;-83
2022/12/25 11:57:30;;;;;;;;;;;;;;;;;;6195312;23;20420;-83
2022/12/25 11:59:56;;;;;;;;;;;;;;;;;;6198288;23;19920;-82
2022/12/25 12:02:21;;;;;;;;;;;;;;;;;;6222820;23;19923;-83
2022/12/25 12:04:47;;;;;;;;;;;;;;;;;;6226540;23;20304;-81
2022/12/25 12:07:13;;;;;;;;;;;;;;;;;;6225588;23;19964;-82
2022/12/25 12:15:16;;;;;;;;;;;;;;;;;;6196642;22;19939;-85
2022/12/25 12:17:42;;;;;;;;;;;;;;;;;;6192303;22;20275;-85
2022/12/25 12:20:07;;;;;;;;;;;;;;;;;;6195550;22;19903;-84
2022/12/25 12:22:33;;;;;;;;;;;;;;;;;;6204517;22;20010;-82
2022/12/25 12:25:00;;;;;;;;;;;;;;;;;;6203533;23;19926;-83
2022/12/25 12:27:26;;;;;;;;;;;;;;;;;;6238664;23;20281;-85
2022/12/25 12:35:15;;;;;;;;;;;;;;;;;;6210881;22;19923;-88
2022/12/25 12:37:40;;;;;;;;;;;;;;;;;;6199276;22;19947;-82
2022/12/25 12:40:06;;;;;;;;;;;;;;;;;;6224282;23;19912;-82
2022/12/25 12:42:32;;;;;;;;;;;;;;;;;;6225408;23;19968;-81
2022/12/25 12:44:58;;;;;;;;;;;;;;;;;;6231572;23;19916;-81
2022/12/25 12:47:24;;;;;;;;;;;;;;;;;;6235127;23;20349;-85
2022/12/25 12:49:49;;;;;;;;;;;;;;;;;;6239181;22;19920;-81
2022/12/25 12:52:15;;;;;;;;;;;;;;;;;;6210568;23;19916;-82
2022/12/25 13:00:12;;;;;;;;;;;;;;;;;;6213232;22;19924;-81
2022/12/25 13:02:38;;;;;;;;;;;;;;;;;;6234835;23;19919;-82
2022/12/25 13:05:04;;;;;;;;;;;;;;;;;;6213633;22;19900;-83
2022/12/25 13:07:31;;;;;;;;;;;;;;;;;;6237501;23;19979;-82
2022/12/25 13:12:38;;;;;;;;;;;;;;;;;;6208159;23;19967;-80
2022/12/25 13:15:03;;;;;;;;;;;;;;;;;;6186568;23;19912;-82
2022/12/25 13:17:29;;;;;;;;;;;;;;;;;;6226822;23;19974;-85
2022/12/25 13:19:57;;;;;;;;;;;;;;;;;;6201056;23;20250;-85
2022/12/25 13:22:23;;;;;;;;;;;;;;;;;;6192322;23;19935;-81
2022/12/25 13:24:49;;;;;;;;;;;;;;;;;;6224878;23;19911;-80
2022/12/25 13:27:14;;;;;;;;;;;;;;;;;;6218815;23;19912;-81
2022/12/25 13:29:40;;;;;;;;;;;;;;;;;;6216835;23;19939;-84
2022/12/25 13:32:05;;;;;;;;;;;;;;;;;;6192082;23;19929;-82
2022/12/25 13:34:31;;;;;;;;;;;;;;;;;;6219160;23;19912;-80
2022/12/25 13:36:59;;;;;;;;;;;;;;;;;;6218925;23;19911;-83
2022/12/25 13:39:25;;;;;;;;;;;;;;;;;;6216479;23;19963;-82
2022/12/25 13:42:09;;;;;;;;;;;;;;;;;;6164042;23;19918;-83
2022/12/25 13:44:35;;;;;;;;;;;;;;;;;;6190036;23;19919;-79
2022/12/25 13:47:01;;;;;;;;;;;;;;;;;;6226761;22;19908;-82
2022/12/25 13:49:26;;;;;;;;;;;;;;;;;;6234756;23;19912;-82
2022/12/25 13:51:52;;;;;;;;;;;;;;;;;;6228790;23;19939;-85
2022/12/25 13:54:17;;;;;;;;;;;;;;;;;;6190818;22;19979;-80
2022/12/25 13:56:43;;;;;;;;;;;;;;;;;;6208705;23;19916;-86
2022/12/25 13:59:09;;;;;;;;;;;;;;;;;;6205840;23;19946;-84
2022/12/25 14:01:34;;;;;;;;;;;;;;;;;;6209747;23;19916;-83
2022/12/25 14:04:00;;;;;;;;;;;;;;;;;;6207383;23;19940;-83
2022/12/25 14:06:28;;;;;;;;;;;;;;;;;;6217680;23;19994;-80
2022/12/25 14:08:54;;;;;;;;;;;;;;;;;;6216010;22;20283;-84
2022/12/25 14:11:20;;;;;;;;;;;;;;;;;;6196558;23;19916;-82
2022/12/25 14:13:45;;;;;;;;;;;;;;;;;;6173724;23;19916;-81
2022/12/25 14:16:11;;;;;;;;;;;;;;;;;;6172538;23;19939;-84
2022/12/25 14:18:36;;;;;;;;;;;;;;;;;;6197947;23;19896;-83
2022/12/25 14:21:02;;;;;;;;;;;;;;;;;;6229498;23;19944;-83
2022/12/25 14:23:28;;;;;;;;;;;;;;;;;;6198161;23;19931;-80
2022/12/25 14:25:54;;;;;;;;;;;;;;;;;;6223434;23;19912;-83
2022/12/25 14:28:19;;;;;;;;;;;;;;;;;;6218104;23;19939;-81
2022/12/25 14:30:45;;;;;;;;;;;;;;;;;;6218091;23;19935;-81
2022/12/25 14:33:11;;;;;;;;;;;;;;;;;;6216676;23;20257;-80
2022/12/25 14:35:36;;;;;;;;;;;;;;;;;;6211374;23;19978;-81
2022/12/25 14:38:02;;;;;;;;;;;;;;;;;;6208961;23;19912;-78
2022/12/25 14:40:29;;;;;;;;;;;;;;;;;;6215659;23;19912;-82
2022/12/25 14:42:55;;;;;;;;;;;;;;;;;;6214839;23;19920;-80
2022/12/25 14:45:23;;;;;;;;;;;;;;;;;;6186945;23;19912;-82
2022/12/25 14:47:49;;;;;;;;;;;;;;;;;;6211609;23;19919;-79
2022/12/25 14:50:15;;;;;;;;;;;;;;;;;;6209974;23;20459;-81
2022/12/25 14:52:41;;;;;;;;;;;;;;;;;;6212943;23;19916;-80
2022/12/25 14:55:07;;;;;;;;;;;;;;;;;;6214014;23;19917;-80
2022/12/25 14:57:33;;;;;;;;;;;;;;;;;;6190748;23;19916;-80
2022/12/25 14:59:58;;;;;;;;;;;;;;;;;;6216684;23;19912;-79
2022/12/25 15:02:24;;;;;;;;;;;;;;;;;;6186681;23;19966;-80
2022/12/25 15:04:49;;;;;;;;;;;;;;;;;;6185422;23;19912;-79
2022/12/25 15:07:15;;;;;;;;;;;;;;;;;;6217131;23;20372;-82
2022/12/25 15:09:41;;;;;;;;;;;;;;;;;;6219626;23;20304;-82
2022/12/25 15:12:07;;;;;;;;;;;;;;;;;;6220655;23;19950;-81
2022/12/25 15:14:35;;;;;;;;;;;;;;;;;;6228639;23;19916;-81
2022/12/25 15:17:00;;;;;;;;;;;;;;;;;;6214892;23;19916;-82
2022/12/25 15:19:26;;;;;;;;;;;;;;;;;;6188175;22;19939;-83
2022/12/25 15:21:52;;;;;;;;;;;;;;;;;;6239476;22;19935;-82
2022/12/25 16:54:51;;;;;;;;;;;;;;;;;;6226354;22;19975;-86
2022/12/25 17:00:07;;;;;;;;;;;;;;;;;;6207318;23;19908;-81
2022/12/25 17:05:02;;;;;;;;;;;;;;;;;;6158286;23;19944;-80
2022/12/25 17:07:28;;;;;;;;;;;;;;;;;;6226114;22;19927;-83
2022/12/25 17:09:55;;;;;;;;;;;;;;;;;;6274028;22;19903;-84
2022/12/25 17:12:21;;;;;;;;;;;;;;;;;;6185391;22;20037;-83
2022/12/25 19:30:47;;;;;;;;;;;;;;;;;;6225498;23;19924;-84
2022/12/25 19:33:13;;;;;;;;;;;;;;;;;;6211216;23;19950;-84
2022/12/25 19:35:39;;;;;;;;;;;;;;;;;;6209211;23;19908;-84
2022/12/25 19:38:05;;;;;;;;;;;;;;;;;;6232895;23;19970;-83
2022/12/25 19:40:30;;;;;;;;;;;;;;;;;;6232372;23;19912;-83
2022/12/25 19:42:56;;;;;;;;;;;;;;;;;;6233018;23;19926;-83
2022/12/25 19:45:22;;;;;;;;;;;;;;;;;;6225857;23;19904;-81
2022/12/25 19:47:48;;;;;;;;;;;;;;;;;;6267294;23;19911;-84
2022/12/25 19:50:14;;;;;;;;;;;;;;;;;;6238658;23;19918;-82
2022/12/25 19:52:41;;;;;;;;;;;;;;;;;;6263578;22;19916;-81
2022/12/25 19:55:06;;;;;;;;;;;;;;;;;;6265838;23;19916;-84
2022/12/25 19:57:32;;;;;;;;;;;;;;;;;;6263863;23;19916;-82
2022/12/25 19:59:58;;;;;;;;;;;;;;;;;;6211106;23;19892;-82
2022/12/25 20:02:24;;;;;;;;;;;;;;;;;;6234245;23;19919;-81
2022/12/25 20:04:49;;;;;;;;;;;;;;;;;;6231110;23;19918;-82
2022/12/25 20:07:15;;;;;;;;;;;;;;;;;;6238115;23;19934;-83
2022/12/25 20:09:41;;;;;;;;;;;;;;;;;;6270073;23;19911;-82
2022/12/25 20:12:09;;;;;;;;;;;;;;;;;;6242543;23;19920;-82
2022/12/25 20:14:36;;;;;;;;;;;;;;;;;;6242433;23;19959;-84
2022/12/25 20:17:02;;;;;;;;;;;;;;;;;;6243271;23;19914;-83
2022/12/25 20:19:28;;;;;;;;;;;;;;;;;;6269938;23;19980;-84
2022/12/25 20:21:53;;;;;;;;;;;;;;;;;;6243324;23;19915;-84
2022/12/25 20:24:19;;;;;;;;;;;;;;;;;;6269766;23;19918;-82
2022/12/25 20:26:45;;;;;;;;;;;;;;;;;;6216274;23;19939;-82
2022/12/25 20:29:11;;;;;;;;;;;;;;;;;;6269068;23;19892;-84
2022/12/25 20:31:37;;;;;;;;;;;;;;;;;;6267644;23;19923;-83
2022/12/25 20:34:03;;;;;;;;;;;;;;;;;;6217381;23;19980;-85
2022/12/25 20:36:29;;;;;;;;;;;;;;;;;;6241921;23;19915;-82
2022/12/25 20:38:55;;;;;;;;;;;;;;;;;;6265851;23;20072;-83
2022/12/25 20:41:20;;;;;;;;;;;;;;;;;;6265388;23;19935;-83
2022/12/25 20:43:46;;;;;;;;;;;;;;;;;;6230608;23;19924;-86
2022/12/25 20:48:52;;;;;;;;;;;;;;;;;;6234176;23;19924;-82
2022/12/25 20:51:18;;;;;;;;;;;;;;;;;;6163539;23;19912;-79
2022/12/25 20:53:44;;;;;;;;;;;;;;;;;;6187877;23;19912;-79
2022/12/25 20:56:09;;;;;;;;;;;;;;;;;;6229174;23;19912;-83
2022/12/25 20:58:35;;;;;;;;;;;;;;;;;;6173632;23;19912;-83
2022/12/25 21:01:01;;;;;;;;;;;;;;;;;;6164003;23;20242;-78
2022/12/25 21:03:27;;;;;;;;;;;;;;;;;;6211055;23;19931;-77
2022/12/25 21:05:53;;;;;;;;;;;;;;;;;;6185121;23;19967;-78
2022/12/25 21:08:19;;;;;;;;;;;;;;;;;;6186126;23;19912;-81
2022/12/25 21:10:49;;;;;;;;;;;;;;;;;;6190214;23;20014;-81
2022/12/25 21:13:14;;;;;;;;;;;;;;;;;;6186456;23;19911;-80
2022/12/25 21:15:40;;;;;;;;;;;;;;;;;;6213837;23;20313;-80
2022/12/25 21:18:07;;;;;;;;;;;;;;;;;;6190970;23;19912;-81
2022/12/25 21:20:33;;;;;;;;;;;;;;;;;;6214649;23;19916;-80
2022/12/25 21:22:58;;;;;;;;;;;;;;;;;;6188018;23;19947;-81
2022/12/25 21:25:24;;;;;;;;;;;;;;;;;;6187499;23;19919;-80
2022/12/25 21:27:50;;;;;;;;;;;;;;;;;;6185883;23;19950;-78
2022/12/25 21:30:16;;;;;;;;;;;;;;;;;;6186275;23;19934;-79
2022/12/25 21:35:26;;;;;;;;;;;;;;;;;;6186728;23;20259;-80
2022/12/25 21:37:52;;;;;;;;;;;;;;;;;;6161860;23;19912;-79
2022/12/25 21:40:18;;;;;;;;;;;;;;;;;;6212945;23;19986;-79
2022/12/25 21:42:44;;;;;;;;;;;;;;;;;;6186440;23;20005;-78
2022/12/25 21:45:10;;;;;;;;;;;;;;;;;;6186088;23;19999;-78
2022/12/25 21:47:35;;;;;;;;;;;;;;;;;;6186347;23;19924;-78
2022/12/25 21:52:46;;;;;;;;;;;;;;;;;;6214307;23;19912;-75
2022/12/25 21:55:11;;;;;;;;;;;;;;;;;;6214008;23;19918;-80
2022/12/25 21:57:38;;;;;;;;;;;;;;;;;;6186968;23;19915;-78
2022/12/25 22:00:04;;;;;;;;;;;;;;;;;;6213375;23;19946;-78
2022/12/25 22:02:31;;;;;;;;;;;;;;;;;;6213374;23;19919;-78
2022/12/25 22:04:57;;;;;;;;;;;;;;;;;;6187794;23;19916;-77
2022/12/25 22:07:22;;;;;;;;;;;;;;;;;;6214421;23;19908;-78
2022/12/25 22:09:48;;;;;;;;;;;;;;;;;;6214634;23;20421;-79
2022/12/25 22:15:04;;;;;;;;;;;;;;;;;;6216189;23;19915;-79
2022/12/25 22:20:15;;;;;;;;;;;;;;;;;;6223974;23;19975;-79
2022/12/25 22:22:40;;;;;;;;;;;;;;;;;;6226283;23;19923;-77
2022/12/25 22:25:07;;;;;;;;;;;;;;;;;;6224303;23;19912;-79
2022/12/25 22:27:33;;;;;;;;;;;;;;;;;;6199441;23;19989;-79
2022/12/25 22:29:58;;;;;;;;;;;;;;;;;;6219160;23;20368;-78
2022/12/25 22:32:25;;;;;;;;;;;;;;;;;;6214118;23;19936;-79
2022/12/25 22:34:50;;;;;;;;;;;;;;;;;;6212790;23;19963;-78
2022/12/25 22:37:16;;;;;;;;;;;;;;;;;;6187304;23;19915;-77
2022/12/25 22:39:42;;;;;;;;;;;;;;;;;;6213595;23;19912;-77
2022/12/25 22:42:07;;;;;;;;;;;;;;;;;;6187078;23;19958;-77
2022/12/25 22:44:34;;;;;;;;;;;;;;;;;;6212730;23;19912;-78
2022/12/25 22:47:00;;;;;;;;;;;;;;;;;;6160526;23;19965;-77
2022/12/25 22:49:28;;;;;;;;;;;;;;;;;;6186544;23;20246;-78
2022/12/25 22:51:54;;;;;;;;;;;;;;;;;;6213767;23;19912;-79
2022/12/25 22:54:20;;;;;;;;;;;;;;;;;;6187347;23;19955;-80
2022/12/25 22:56:45;;;;;;;;;;;;;;;;;;6187234;23;19974;-80